Time;durP1;ratioP1;P1;durP2;ratioP2;P2;SDS_P1;SDS_P2;PMS_P1;PMS_P2;Temp;Humidity;BMP_temperature;BMP_pressure;BME280_temperature;BME280_humidity;BME280_pressure;Samples;Min_cycle;Max_cycle;Signal;HPM_P1;HPM_P2
2021/10/06 00:02:13;;;;;;;15.98;6.05;;;17.90;71.10;;;;;;4995274;28;20120;-68
2021/10/06 00:04:39;;;;;;;11.48;6.35;;;17.90;70.10;;;;;;4995290;28;20042;-68
2021/10/06 00:07:05;;;;;;;13.30;6.03;;;17.90;70.10;;;;;;4996536;28;20455;-65
2021/10/06 00:09:31;;;;;;;17.85;6.88;;;17.90;69.70;;;;;;4996425;28;20027;-66
2021/10/06 00:11:57;;;;;;;24.20;7.07;;;17.90;69.90;;;;;;4996101;28;20081;-68
2021/10/06 00:14:23;;;;;;;18.42;7.75;;;17.90;69.90;;;;;;4996399;28;20026;-67
2021/10/06 00:16:51;;;;;;;12.15;7.15;;;17.90;69.90;;;;;;4995027;28;20037;-66
2021/10/06 00:19:17;;;;;;;18.90;8.38;;;17.90;69.90;;;;;;4995926;28;20054;-67
2021/10/06 00:21:43;;;;;;;19.23;9.10;;;17.80;70.10;;;;;;4996247;28;20030;-66
2021/10/06 00:24:09;;;;;;;16.25;7.47;;;17.80;69.70;;;;;;4994905;28;20364;-65
2021/10/06 00:26:35;;;;;;;18.38;7.63;;;17.80;69.70;;;;;;4994875;28;20845;-65
2021/10/06 00:29:02;;;;;;;14.65;6.25;;;17.80;70.10;;;;;;4994759;28;20081;-67
2021/10/06 00:31:27;;;;;;;22.63;6.10;;;17.80;70.60;;;;;;4996068;28;20030;-67
2021/10/06 00:33:54;;;;;;;19.30;7.45;;;17.80;70.20;;;;;;4996000;28;20029;-67
2021/10/06 00:36:19;;;;;;;15.77;8.98;;;17.70;70.00;;;;;;4994657;28;20030;-65
2021/10/06 00:38:45;;;;;;;15.90;7.57;;;17.70;70.10;;;;;;4995524;28;20053;-66
2021/10/06 00:41:11;;;;;;;17.63;7.95;;;17.80;70.60;;;;;;4995876;28;20038;-67
2021/10/06 00:43:37;;;;;;;14.40;7.63;;;17.70;70.00;;;;;;4994528;28;20423;-67
2021/10/06 00:46:03;;;;;;;16.10;8.10;;;17.70;70.60;;;;;;4994514;28;20034;-68
2021/10/06 00:48:29;;;;;;;19.23;7.80;;;17.70;70.50;;;;;;4995989;28;20101;-64
2021/10/06 00:50:55;;;;;;;18.67;6.63;;;17.70;70.70;;;;;;4995795;28;20022;-66
2021/10/06 00:53:28;;;;;;;10.20;6.15;;;17.70;70.30;;;;;;4995368;28;20026;-66
2021/10/06 00:55:54;;;;;;;12.68;6.10;;;17.60;70.00;;;;;;4994291;28;20121;-67
2021/10/06 00:58:21;;;;;;;17.77;5.82;;;17.60;69.90;;;;;;4995512;28;20026;-65
2021/10/06 01:00:47;;;;;;;12.82;5.25;;;17.70;69.90;;;;;;4995444;28;20034;-66
2021/10/06 01:03:14;;;;;;;14.23;6.47;;;17.60;70.10;;;;;;4995559;28;20081;-67
2021/10/06 01:05:40;;;;;;;11.18;6.40;;;17.70;69.70;;;;;;4995685;28;20030;-68
2021/10/06 01:08:07;;;;;;;15.05;6.38;;;17.60;69.90;;;;;;4994031;28;20073;-66
2021/10/06 01:10:34;;;;;;;18.13;7.47;;;17.70;69.70;;;;;;4994858;28;20403;-65
2021/10/06 01:13:00;;;;;;;18.88;6.63;;;17.70;69.70;;;;;;4995284;28;20058;-66
2021/10/06 01:15:27;;;;;;;18.85;6.15;;;17.60;69.40;;;;;;4995236;28;20033;-68
2021/10/06 01:17:53;;;;;;;16.38;5.93;;;17.60;69.40;;;;;;4995183;28;20034;-67
2021/10/06 01:20:19;;;;;;;13.23;5.80;;;17.60;69.60;;;;;;4994729;28;20118;-67
2021/10/06 01:22:45;;;;;;;19.27;6.20;;;17.60;69.60;;;;;;4995077;28;20110;-66
2021/10/06 01:25:13;;;;;;;12.60;5.88;;;17.60;70.50;;;;;;4995080;28;20105;-65
2021/10/06 01:27:40;;;;;;;15.70;6.38;;;17.50;69.60;;;;;;4995001;28;20018;-64
2021/10/06 01:30:07;;;;;;;22.77;5.97;;;17.50;69.70;;;;;;4994007;28;20471;-67
2021/10/06 01:32:36;;;;;;;11.70;5.72;;;17.50;69.90;;;;;;4994949;28;20455;-66
2021/10/06 01:35:04;;;;;;;18.90;5.85;;;17.50;69.60;;;;;;4994567;28;20029;-71
2021/10/06 01:37:31;;;;;;;12.63;5.75;;;17.50;69.70;;;;;;4994541;28;20368;-66
2021/10/06 01:39:57;;;;;;;15.93;5.85;;;17.50;69.70;;;;;;4994705;28;20053;-69
2021/10/06 01:42:23;;;;;;;19.60;5.95;;;17.40;69.60;;;;;;4993425;28;20531;-66
2021/10/06 01:44:49;;;;;;;15.88;5.90;;;17.40;69.20;;;;;;4994668;28;20026;-65
2021/10/06 01:47:21;;;;;;;14.77;6.28;;;17.40;69.20;;;;;;4994927;28;20026;-65
2021/10/06 01:49:47;;;;;;;;;;;17.40;69.60;;;;;;4993697;28;20046;-66
2021/10/06 01:52:18;;;;;;;13.43;5.95;;;17.40;69.30;;;;;;4994618;28;19906;-66
2021/10/06 01:54:44;;;;;;;13.30;5.28;;;17.40;69.60;;;;;;4994631;28;20179;-69
2021/10/06 01:57:12;;;;;;;18.60;6.18;;;17.40;69.60;;;;;;4994463;28;20037;-67
2021/10/06 01:59:40;;;;;;;9.35;5.53;;;17.30;69.20;;;;;;4994043;28;20093;-66
2021/10/06 02:02:06;;;;;;;9.98;5.55;;;17.40;69.50;;;;;;4993192;28;20049;-65
2021/10/06 02:04:31;;;;;;;19.65;5.78;;;17.40;69.70;;;;;;4994077;28;20390;-67
2021/10/06 02:06:57;;;;;;;15.75;4.95;;;17.30;69.80;;;;;;4993004;28;20121;-68
2021/10/06 02:09:23;;;;;;;9.70;5.68;;;17.30;69.80;;;;;;4992961;28;20430;-65
2021/10/06 02:11:49;;;;;;;12.85;5.95;;;17.30;70.20;;;;;;4995737;28;20049;-67
2021/10/06 02:14:15;;;;;;;15.57;5.18;;;17.30;70.00;;;;;;5013795;28;20037;-66
2021/10/06 02:16:41;;;;;;;11.20;5.32;;;17.30;69.90;;;;;;5013732;28;20541;-65
2021/10/06 02:19:07;;;;;;;11.98;4.80;;;17.30;69.90;;;;;;5013402;28;20113;-66
2021/10/06 02:21:36;;;;;;;13.55;5.15;;;17.20;69.60;;;;;;5013725;28;20036;-67
2021/10/06 02:24:05;;;;;;;9.98;4.95;;;17.30;69.70;;;;;;5013644;28;20025;-67
2021/10/06 02:26:32;;;;;;;7.82;5.15;;;17.30;70.00;;;;;;5013873;28;20072;-65
2021/10/06 02:28:58;;;;;;;14.40;5.68;;;17.30;70.30;;;;;;4995877;28;20041;-68
2021/10/06 02:31:24;;;;;;;15.18;5.18;;;17.30;70.00;;;;;;4995872;28;20021;-69
2021/10/06 02:33:50;;;;;;;12.70;5.60;;;17.20;70.30;;;;;;5013467;28;20084;-66
2021/10/06 02:36:16;;;;;;;12.10;5.32;;;17.30;70.00;;;;;;4995807;28;20034;-67
2021/10/06 02:38:42;;;;;;;11.35;5.55;;;17.20;70.20;;;;;;5013359;28;20022;-66
2021/10/06 02:41:07;;;;;;;11.13;5.55;;;17.20;70.00;;;;;;5013380;28;20132;-67
2021/10/06 02:43:33;;;;;;;12.65;5.15;;;17.20;69.20;;;;;;5013373;28;20105;-68
2021/10/06 02:45:59;;;;;;;12.48;6.30;;;17.20;69.80;;;;;;4995664;28;20026;-68
2021/10/06 02:48:25;;;;;;;12.85;5.18;;;17.20;69.40;;;;;;5013408;28;20192;-67
2021/10/06 02:50:52;;;;;;;11.82;5.70;;;17.20;69.70;;;;;;4995900;28;20537;-69
2021/10/06 02:53:17;;;;;;;12.80;5.20;;;17.20;69.50;;;;;;5013226;28;20066;-68
2021/10/06 02:55:43;;;;;;;17.95;5.68;;;17.20;69.40;;;;;;5013280;28;20057;-69
2021/10/06 02:58:09;;;;;;;20.15;5.50;;;17.20;69.50;;;;;;5013187;28;20037;-67
2021/10/06 03:00:36;;;;;;;18.45;5.55;;;17.20;69.80;;;;;;5012936;28;20034;-67
2021/10/06 03:03:02;;;;;;;9.70;5.22;;;17.20;69.70;;;;;;4995520;28;20030;-70
2021/10/06 03:05:28;;;;;;;11.13;5.88;;;17.20;69.80;;;;;;5013104;28;20084;-69
2021/10/06 03:07:53;;;;;;;11.40;6.00;;;17.20;70.00;;;;;;5013153;28;20026;-67
2021/10/06 03:10:19;;;;;;;9.38;5.85;;;17.20;69.90;;;;;;5007893;28;20058;-67
2021/10/06 03:12:45;;;;;;;12.27;5.55;;;17.20;69.80;;;;;;4993541;28;20427;-66
2021/10/06 03:15:12;;;;;;;13.18;5.95;;;17.20;70.10;;;;;;4992175;28;20031;-65
2021/10/06 03:17:39;;;;;;;12.48;5.40;;;17.20;70.00;;;;;;4993441;28;20034;-65
2021/10/06 03:20:07;;;;;;;15.07;5.93;;;17.20;69.70;;;;;;4993393;28;20030;-66
2021/10/06 03:22:33;;;;;;;15.85;6.60;;;17.20;70.00;;;;;;4993447;28;20355;-65
2021/10/06 03:24:58;;;;;;;12.35;5.90;;;17.20;70.60;;;;;;4993058;28;20033;-69
2021/10/06 03:27:24;;;;;;;12.73;6.38;;;17.10;72.00;;;;;;4993643;28;20091;-65
2021/10/06 03:29:51;;;;;;;13.55;6.25;;;17.10;71.80;;;;;;4993386;28;20432;-67
2021/10/06 03:32:18;;;;;;;13.48;6.13;;;17.10;71.30;;;;;;4993590;28;20023;-63
2021/10/06 03:34:43;;;;;;;12.82;5.97;;;17.10;71.10;;;;;;4993377;28;20108;-67
2021/10/06 03:37:09;;;;;;;16.35;6.93;;;17.10;71.20;;;;;;4993304;28;20534;-67
2021/10/06 03:39:35;;;;;;;13.35;6.07;;;17.10;71.60;;;;;;4993264;28;20034;-67
2021/10/06 03:42:02;;;;;;;11.65;5.88;;;17.10;71.30;;;;;;4993316;28;20026;-66
2021/10/06 03:44:28;;;;;;;17.25;6.28;;;17.10;70.80;;;;;;4992187;28;20453;-66
2021/10/06 03:46:54;;;;;;;16.10;5.78;;;17.10;70.90;;;;;;4993239;28;20109;-67
2021/10/06 03:49:20;;;;;;;17.27;6.35;;;17.00;72.40;;;;;;4993242;28;20084;-66
2021/10/06 03:51:46;;;;;;;18.15;6.22;;;17.00;72.00;;;;;;4991918;28;20034;-66
2021/10/06 03:54:12;;;;;;;12.57;5.53;;;17.00;72.20;;;;;;4995861;28;20034;-67
2021/10/06 03:56:37;;;;;;;14.10;6.35;;;17.00;72.60;;;;;;4995428;28;20037;-66
2021/10/06 03:59:03;;;;;;;12.57;6.07;;;17.00;72.10;;;;;;4996631;28;20467;-67
2021/10/06 04:01:29;;;;;;;12.07;5.93;;;17.00;72.10;;;;;;4996647;28;20026;-65
2021/10/06 04:03:55;;;;;;;15.95;6.97;;;17.00;72.40;;;;;;4996604;28;20455;-64
2021/10/06 04:06:21;;;;;;;19.10;6.45;;;17.00;72.40;;;;;;4996820;28;20422;-66
2021/10/06 04:08:47;;;;;;;12.73;5.60;;;17.00;71.80;;;;;;4995189;28;20026;-65
2021/10/06 04:11:12;;;;;;;20.65;6.43;;;17.00;71.90;;;;;;4995898;28;20046;-65
2021/10/06 04:13:38;;;;;;;12.00;6.10;;;17.00;71.60;;;;;;4996746;28;20069;-65
2021/10/06 04:16:04;;;;;;;12.73;6.32;;;17.00;72.20;;;;;;4996382;28;20079;-65
2021/10/06 04:18:30;;;;;;;13.50;5.78;;;17.00;71.80;;;;;;4996313;28;20033;-66
2021/10/06 04:20:56;;;;;;;12.57;6.03;;;17.00;72.20;;;;;;4996164;28;20038;-65
2021/10/06 04:23:22;;;;;;;18.70;6.45;;;17.00;72.40;;;;;;4996301;28;20539;-66
2021/10/06 04:25:48;;;;;;;15.20;6.18;;;17.00;72.90;;;;;;4994884;28;20450;-66
2021/10/06 04:28:14;;;;;;;13.43;6.45;;;17.00;72.50;;;;;;4996205;28;20030;-65
2021/10/06 04:30:39;;;;;;;22.75;6.82;;;16.90;73.50;;;;;;4996427;28;20060;-67
2021/10/06 04:33:06;;;;;;;16.38;6.60;;;16.90;75.20;;;;;;4996157;28;20030;-64
2021/10/06 04:35:31;;;;;;;12.73;6.75;;;16.80;77.20;;;;;;4996024;28;20037;-67
2021/10/06 04:37:57;;;;;;;15.02;6.03;;;16.70;76.80;;;;;;4996209;28;20034;-65
2021/10/06 04:40:23;;;;;;;18.15;7.53;;;16.60;79.00;;;;;;4994553;28;20042;-68
2021/10/06 04:42:50;;;;;;;13.60;6.28;;;16.50;81.50;;;;;;4994850;28;20108;-65
2021/10/06 04:45:16;;;;;;;12.93;6.70;;;16.40;81.50;;;;;;4993519;28;20490;-66
2021/10/06 04:47:42;;;;;;;10.55;6.25;;;16.40;82.80;;;;;;4995552;28;20042;-67
2021/10/06 04:50:08;;;;;;;15.50;7.28;;;16.30;83.90;;;;;;4994338;28;20030;-66
2021/10/06 04:52:34;;;;;;;19.30;8.15;;;16.30;84.50;;;;;;4991519;28;20026;-67
2021/10/06 04:55:00;;;;;;;22.10;8.55;;;16.20;85.60;;;;;;4993708;28;20479;-66
2021/10/06 04:57:26;;;;;;;17.52;8.38;;;16.10;87.80;;;;;;4995276;28;20116;-67
2021/10/06 04:59:52;;;;;;;19.35;10.52;;;15.90;89.10;;;;;;4994016;28;20383;-67
2021/10/06 05:02:18;;;;;;;16.50;9.13;;;15.80;91.30;;;;;;4995250;28;20065;-69
2021/10/06 05:04:44;;;;;;;16.23;8.85;;;15.70;90.70;;;;;;4993024;28;20128;-66
2021/10/06 05:07:10;;;;;;;17.92;10.25;;;15.60;91.30;;;;;;4995503;28;20037;-65
2021/10/06 05:09:35;;;;;;;17.40;8.48;;;15.60;93.30;;;;;;4993987;28;20030;-68
2021/10/06 05:12:01;;;;;;;13.95;8.10;;;15.60;91.90;;;;;;4997317;28;20413;-67
2021/10/06 05:14:30;;;;;;;15.32;8.73;;;15.60;92.90;;;;;;4993960;28;20368;-68
2021/10/06 05:16:56;;;;;;;18.83;8.73;;;15.60;92.30;;;;;;4995164;28;20030;-67
2021/10/06 05:19:22;;;;;;;15.75;8.02;;;15.60;92.00;;;;;;4993655;28;20451;-68
2021/10/06 05:21:48;;;;;;;19.67;9.25;;;15.50;92.50;;;;;;4993604;28;20038;-68
2021/10/06 05:24:14;;;;;;;21.10;9.02;;;15.60;92.70;;;;;;4994718;28;20427;-66
2021/10/06 05:26:40;;;;;;;14.00;7.95;;;15.50;92.20;;;;;;4994530;28;20031;-64
2021/10/06 05:29:06;;;;;;;17.90;7.90;;;15.50;91.00;;;;;;4993515;28;20034;-69
2021/10/06 05:31:31;;;;;;;23.42;10.93;;;15.60;92.60;;;;;;4995054;28;20370;-65
2021/10/06 05:33:58;;;;;;;17.05;9.02;;;15.60;93.00;;;;;;4994845;28;20072;-68
2021/10/06 05:36:24;;;;;;;20.88;10.63;;;15.60;92.50;;;;;;4994000;28;20105;-69
2021/10/06 05:38:51;;;;;;;25.52;9.55;;;15.50;94.40;;;;;;4992906;28;20113;-65
2021/10/06 05:41:18;;;;;;;17.15;8.75;;;15.60;93.30;;;;;;4992901;28;20525;-65
2021/10/06 05:43:44;;;;;;;23.90;10.55;;;15.60;94.10;;;;;;4994724;28;20045;-65
2021/10/06 05:46:09;;;;;;;17.35;10.88;;;15.50;94.40;;;;;;4994611;28;20026;-67
2021/10/06 05:48:35;;;;;;;31.60;16.77;;;15.60;93.70;;;;;;4993196;28;20435;-65
2021/10/06 05:51:01;;;;;;;36.35;22.67;;;15.50;96.80;;;;;;4993117;28;20026;-67
2021/10/06 05:53:28;;;;;;;69.38;46.47;;;15.50;97.50;;;;;;4994505;28;20109;-67
2021/10/06 05:55:54;;;;;;;92.65;64.35;;;15.60;98.40;;;;;;4994404;28;20463;-66
2021/10/06 05:58:20;;;;;;;124.15;86.90;;;15.50;98.70;;;;;;4994427;28;20034;-65
2021/10/06 06:00:46;;;;;;;225.48;136.07;;;15.50;99.10;;;;;;4994275;28;20052;-67
2021/10/06 06:03:11;;;;;;;185.60;110.95;;;15.50;99.90;;;;;;4994068;28;20037;-67
2021/10/06 06:05:41;;;;;;;159.93;95.60;;;15.50;99.70;;;;;;4994107;28;20105;-65
2021/10/06 06:08:07;;;;;;;109.95;60.70;;;15.50;99.80;;;;;;4994144;28;20081;-67
2021/10/06 06:10:33;;;;;;;107.93;62.13;;;15.50;99.20;;;;;;4994001;28;20057;-65
2021/10/06 06:12:59;;;;;;;102.43;53.88;;;15.40;99.90;;;;;;4994046;28;20490;-66
2021/10/06 06:15:25;;;;;;;75.13;41.45;;;15.40;99.90;;;;;;4993820;28;20026;-66
2021/10/06 06:17:51;;;;;;;50.53;30.02;;;15.40;99.90;;;;;;4989391;28;20137;-65
2021/10/06 06:20:23;;;;;;;35.83;20.73;;;15.40;99.90;;;;;;4992182;28;20042;-64
2021/10/06 06:22:50;;;;;;;23.60;14.15;;;15.40;99.90;;;;;;4994321;28;20443;-64
2021/10/06 06:25:16;;;;;;;16.73;11.48;;;15.40;99.90;;;;;;4993885;28;20080;-66
2021/10/06 06:27:41;;;;;;;20.00;11.75;;;15.40;99.90;;;;;;4992344;28;20109;-65
2021/10/06 06:30:08;;;;;;;25.42;11.32;;;15.40;99.90;;;;;;4992490;28;20050;-66
2021/10/06 06:32:34;;;;;;;18.80;10.10;;;15.40;99.90;;;;;;4993849;28;20363;-63
2021/10/06 06:35:00;;;;;;;18.83;10.52;;;15.40;99.90;;;;;;4993856;28;20375;-66
2021/10/06 06:37:25;;;;;;;15.65;11.20;;;15.40;99.90;;;;;;4992156;28;20022;-66
2021/10/06 06:39:51;;;;;;;19.05;10.25;;;15.40;99.90;;;;;;4993402;28;20493;-66
2021/10/06 06:42:17;;;;;;;17.98;10.15;;;15.40;99.90;;;;;;4992341;28;20038;-66
2021/10/06 06:44:43;;;;;;;19.48;10.05;;;15.40;99.90;;;;;;5007265;28;20030;-65
2021/10/06 06:47:09;;;;;;;22.13;11.43;;;15.30;99.90;;;;;;5013536;28;20048;-65
2021/10/06 06:49:35;;;;;;;18.20;8.93;;;15.30;99.90;;;;;;5013208;28;20466;-68
2021/10/06 06:52:01;;;;;;;20.98;9.65;;;15.30;99.90;;;;;;5011854;28;20029;-64
2021/10/06 06:54:28;;;;;;;18.55;9.75;;;15.30;99.90;;;;;;4996332;28;20525;-67
2021/10/06 06:56:54;;;;;;;17.40;9.32;;;15.30;99.90;;;;;;4993551;28;20459;-66
2021/10/06 06:59:20;;;;;;;16.83;9.32;;;15.30;99.90;;;;;;4991993;28;20041;-66
2021/10/06 07:01:46;;;;;;;16.33;9.93;;;15.30;99.90;;;;;;4992017;28;20031;-67
2021/10/06 07:04:13;;;;;;;20.00;9.85;;;15.20;99.90;;;;;;4991986;28;20031;-64
2021/10/06 07:06:40;;;;;;;19.00;10.98;;;15.20;99.90;;;;;;4986311;28;20506;-67
2021/10/06 07:09:07;;;;;;;17.95;9.52;;;15.20;99.90;;;;;;4992732;28;20030;-65
2021/10/06 07:11:34;;;;;;;25.13;11.68;;;15.20;99.90;;;;;;4991315;28;20077;-67
2021/10/06 07:14:00;;;;;;;16.92;10.73;;;15.30;99.90;;;;;;4991945;28;20411;-66
2021/10/06 07:16:26;;;;;;;21.80;11.25;;;15.30;99.90;;;;;;4993254;28;20081;-67
2021/10/06 07:18:52;;;;;;;28.48;17.10;;;15.20;99.90;;;;;;4991718;28;20029;-69
2021/10/06 07:21:18;;;;;;;52.42;28.90;;;15.20;99.90;;;;;;4993200;28;20408;-64
2021/10/06 07:23:44;;;;;;;40.08;24.83;;;15.20;99.90;;;;;;4993369;28;20101;-68
2021/10/06 07:26:12;;;;;;;37.53;22.90;;;15.20;99.90;;;;;;4993263;28;20467;-67
2021/10/06 07:28:38;;;;;;;39.83;25.50;;;15.20;99.90;;;;;;4995200;28;20359;-67
2021/10/06 07:31:04;;;;;;;44.05;26.15;;;15.20;99.90;;;;;;4997279;28;20038;-66
2021/10/06 07:33:30;;;;;;;48.92;30.23;;;15.20;99.90;;;;;;4997055;28;20030;-65
2021/10/06 07:35:56;;;;;;;52.28;33.03;;;15.20;99.90;;;;;;4996991;28;20031;-67
2021/10/06 07:38:22;;;;;;;79.40;44.97;;;15.30;99.90;;;;;;4996748;28;20041;-68
2021/10/06 07:40:48;;;;;;;97.80;59.60;;;15.30;99.90;;;;;;4996772;28;20044;-66
2021/10/06 07:43:13;;;;;;;94.18;58.22;;;15.30;99.90;;;;;;4996826;28;20104;-68
2021/10/06 07:45:40;;;;;;;88.95;52.65;;;15.40;99.90;;;;;;4997082;28;20459;-65
2021/10/06 07:48:06;;;;;;;78.35;46.03;;;15.60;99.90;;;;;;4996763;28;20026;-64
2021/10/06 07:50:32;;;;;;;86.25;51.20;;;15.60;99.90;;;;;;4996602;28;20030;-66
2021/10/06 07:52:58;;;;;;;88.70;53.65;;;15.60;99.90;;;;;;4996497;28;20034;-66
2021/10/06 07:55:24;;;;;;;79.40;40.90;;;15.70;99.90;;;;;;4996726;28;20109;-68
2021/10/06 07:57:51;;;;;;;58.35;37.10;;;15.80;99.90;;;;;;4996410;28;20481;-66
2021/10/06 08:00:17;;;;;;;42.95;26.75;;;15.90;99.90;;;;;;4996404;28;20041;-65
2021/10/06 08:02:43;;;;;;;53.03;31.33;;;16.00;99.90;;;;;;4996371;28;20031;-66
2021/10/06 08:05:09;;;;;;;60.90;35.72;;;16.00;99.90;;;;;;4996434;28;20034;-63
2021/10/06 08:07:35;;;;;;;62.78;36.55;;;16.00;99.90;;;;;;4995139;28;20041;-67
2021/10/06 08:10:01;;;;;;;59.13;32.13;;;16.10;99.90;;;;;;4996134;28;20026;-65
2021/10/06 08:12:27;;;;;;;57.50;34.80;;;16.20;99.90;;;;;;4995768;28;20030;-67
2021/10/06 08:14:53;;;;;;;65.88;38.50;;;16.20;99.90;;;;;;4996031;28;20038;-67
2021/10/06 08:17:19;;;;;;;78.65;44.33;;;16.30;99.90;;;;;;4996218;28;20038;-69
2021/10/06 08:19:46;;;;;;;62.63;38.70;;;16.40;99.90;;;;;;4996350;28;20041;-67
2021/10/06 08:22:13;;;;;;;89.22;52.63;;;16.50;99.90;;;;;;4996161;28;20065;-68
2021/10/06 08:24:39;;;;;;;86.78;50.65;;;16.40;99.90;;;;;;4996207;28;20033;-68
2021/10/06 08:27:05;;;;;;;81.05;49.17;;;16.40;99.90;;;;;;4996386;28;20041;-68
2021/10/06 08:29:31;;;;;;;75.03;45.50;;;16.40;99.90;;;;;;4996110;28;20470;-69
2021/10/06 08:31:57;;;;;;;72.00;45.58;;;16.30;99.90;;;;;;4996027;28;20030;-69
2021/10/06 08:34:22;;;;;;;72.65;46.50;;;16.40;99.90;;;;;;4996249;28;20031;-70
2021/10/06 08:36:48;;;;;;;77.13;47.15;;;16.40;99.90;;;;;;4995875;28;20034;-69
2021/10/06 08:39:14;;;;;;;67.88;41.17;;;16.40;99.90;;;;;;4994341;28;20088;-68
2021/10/06 08:41:40;;;;;;;52.25;30.55;;;16.50;99.90;;;;;;4996066;28;20414;-68
2021/10/06 08:44:06;;;;;;;28.20;16.08;;;16.60;99.90;;;;;;4994457;28;20085;-68
2021/10/06 08:46:33;;;;;;;24.50;15.05;;;16.60;99.90;;;;;;4995708;28;20081;-68
2021/10/06 08:49:00;;;;;;;28.50;12.30;;;16.60;99.90;;;;;;4994367;28;20109;-69
2021/10/06 08:51:27;;;;;;;19.85;12.57;;;16.70;99.80;;;;;;4995616;28;20044;-69
2021/10/06 08:53:53;;;;;;;23.50;11.60;;;16.70;98.90;;;;;;4995601;28;20026;-70
2021/10/06 08:56:21;;;;;;;22.40;12.57;;;16.90;99.90;;;;;;4993435;28;20054;-68
2021/10/06 08:58:48;;;;;;;22.90;11.73;;;17.00;99.50;;;;;;4996973;28;20058;-65
2021/10/06 09:01:25;;;;;;;19.90;11.35;;;17.20;99.90;;;;;;4995252;28;20427;-68
2021/10/06 09:03:56;;;;;;;19.42;12.00;;;17.10;99.10;;;;;;4995325;28;20032;-68
2021/10/06 09:06:29;;;;;;;17.95;10.73;;;17.10;98.90;;;;;;4995333;28;20022;-68
2021/10/06 09:08:55;;;;;;;22.17;12.50;;;17.10;99.10;;;;;;4995399;28;20026;-65
2021/10/06 09:11:21;;;;;;;17.33;10.93;;;17.00;98.50;;;;;;4994892;28;20057;-68
2021/10/06 09:13:47;;;;;;;22.42;12.75;;;17.00;97.30;;;;;;4993901;28;20366;-68
2021/10/06 09:16:18;;;;;;;16.60;11.57;;;17.00;97.80;;;;;;4995554;28;20049;-65
2021/10/06 09:18:44;;;;;;;28.77;13.40;;;17.00;96.70;;;;;;4995222;28;20042;-67
2021/10/06 09:21:10;;;;;;;20.38;13.20;;;17.00;96.40;;;;;;4995075;28;20042;-67
2021/10/06 09:23:41;;;;;;;21.63;12.88;;;17.00;95.50;;;;;;4995125;28;20026;-65
2021/10/06 09:26:12;;;;;;;31.38;12.48;;;17.00;96.00;;;;;;4992746;28;20030;-72
2021/10/06 09:28:47;;;;;;;26.00;14.13;;;16.90;95.80;;;;;;4994060;28;20045;-66
2021/10/06 09:31:17;;;;;;;17.40;11.38;;;16.90;95.20;;;;;;4994981;28;20031;-67
2021/10/06 09:33:49;;;;;;;23.10;15.43;;;17.00;94.70;;;;;;4994790;28;20490;-67
2021/10/06 09:36:28;;;;;;;38.80;22.15;;;17.00;94.60;;;;;;4994759;28;20109;-68
2021/10/06 09:39:09;;;;;;;43.13;25.77;;;17.00;94.40;;;;;;4993223;28;20033;-67
2021/10/06 09:41:39;;;;;;;41.22;24.75;;;17.10;94.50;;;;;;4993424;28;20044;-67
2021/10/06 09:44:09;;;;;;;53.00;30.55;;;17.10;94.60;;;;;;4994596;28;20514;-68
2021/10/06 09:46:48;;;;;;;71.38;37.80;;;17.00;94.40;;;;;;4994618;28;20074;-66
2021/10/06 09:49:36;;;;;;;61.47;37.55;;;17.10;95.20;;;;;;4994527;28;20356;-66
2021/10/06 09:52:15;;;;;;;56.85;34.83;;;17.20;95.10;;;;;;4993966;28;20026;-68
2021/10/06 09:54:57;;;;;;;47.05;28.95;;;17.30;94.90;;;;;;4994286;28;20049;-66
2021/10/06 09:57:32;;;;;;;39.88;23.83;;;17.20;93.90;;;;;;4993069;28;20029;-68
2021/10/06 10:00:10;;;;;;;34.78;20.52;;;17.30;93.80;;;;;;4994388;28;20475;-66
2021/10/06 10:02:37;;;;;;;27.52;18.27;;;17.20;94.10;;;;;;4994195;28;20467;-65
2021/10/06 10:05:05;;;;;;;25.70;16.90;;;17.20;93.80;;;;;;4993037;28;20030;-66
2021/10/06 10:07:32;;;;;;;33.03;22.23;;;17.20;94.40;;;;;;4994573;28;20030;-65
2021/10/06 10:09:58;;;;;;;36.50;21.95;;;17.10;94.60;;;;;;4992832;28;20100;-66
2021/10/06 10:12:26;;;;;;;27.67;17.33;;;17.10;95.60;;;;;;5013782;28;20041;-67
2021/10/06 10:14:54;;;;;;;26.00;14.57;;;17.10;95.30;;;;;;4996056;28;20489;-66
2021/10/06 10:17:20;;;;;;;24.52;15.75;;;17.00;94.80;;;;;;5013744;28;20080;-65
2021/10/06 10:19:54;;;;;;;29.23;16.65;;;17.00;95.70;;;;;;5013556;28;20034;-67
2021/10/06 10:22:22;;;;;;;27.50;16.30;;;17.00;96.40;;;;;;5013631;28;20034;-66
2021/10/06 10:24:50;;;;;;;26.52;13.90;;;17.10;95.90;;;;;;5013628;28;20030;-65
2021/10/06 10:27:19;;;;;;;24.00;13.98;;;17.00;94.90;;;;;;5013487;28;20057;-66
2021/10/06 10:29:46;;;;;;;23.65;14.57;;;17.00;96.10;;;;;;4995808;28;20034;-67
2021/10/06 10:32:19;;;;;;;23.00;13.18;;;17.00;95.40;;;;;;5013466;28;20470;-65
2021/10/06 10:34:58;;;;;;;22.02;13.40;;;16.90;95.30;;;;;;5013397;28;20033;-68
2021/10/06 10:37:45;;;;;;;27.60;13.32;;;16.90;95.30;;;;;;5013439;28;20033;-65
2021/10/06 10:40:32;;;;;;;25.58;13.85;;;16.80;95.30;;;;;;5013250;28;20038;-67
2021/10/06 10:43:03;;;;;;;20.92;13.63;;;16.70;95.10;;;;;;4995575;28;20045;-67
2021/10/06 10:45:36;;;;;;;28.48;17.98;;;16.70;95.40;;;;;;4995629;28;20029;-66
2021/10/06 10:48:04;;;;;;;39.92;25.73;;;16.70;95.60;;;;;;5013055;28;20050;-67
2021/10/06 10:50:42;;;;;;;62.45;34.80;;;16.70;95.60;;;;;;5013006;28;20076;-66
2021/10/06 10:53:09;;;;;;;44.70;27.95;;;16.60;96.30;;;;;;5013177;28;20034;-68
2021/10/06 10:55:56;;;;;;;36.05;22.48;;;16.70;96.50;;;;;;5013231;28;20025;-64
2021/10/06 10:58:28;;;;;;;36.28;23.73;;;16.60;96.00;;;;;;4995494;28;20110;-68
2021/10/06 11:00:55;;;;;;;38.97;24.83;;;16.60;96.20;;;;;;5013099;28;20034;-67
2021/10/06 11:03:21;;;;;;;36.05;24.85;;;16.60;96.30;;;;;;5014723;28;20022;-65
2021/10/06 11:05:48;;;;;;;25.52;16.10;;;16.70;96.10;;;;;;5017247;28;20136;-65
2021/10/06 11:08:28;;;;;;;22.00;13.65;;;16.80;95.60;;;;;;5017205;28;20030;-65
2021/10/06 11:11:09;;;;;;;25.75;14.50;;;16.80;94.80;;;;;;5009111;28;20491;-67
2021/10/06 11:13:37;;;;;;;23.00;13.40;;;16.90;94.80;;;;;;4997441;28;20109;-65
2021/10/06 11:16:05;;;;;;;22.77;13.35;;;16.90;94.60;;;;;;4995847;28;20026;-66
2021/10/06 11:18:57;;;;;;;24.85;14.35;;;17.00;94.50;;;;;;4997760;28;20030;-66
2021/10/06 11:21:52;;;;;;;26.08;13.70;;;17.10;94.60;;;;;;4997612;28;20486;-66
2021/10/06 11:24:23;;;;;;;21.33;13.38;;;17.30;93.70;;;;;;4987865;28;20074;-66
2021/10/06 11:27:00;;;;;;;21.33;13.10;;;17.40;93.60;;;;;;4997288;28;20026;-67
2021/10/06 11:29:25;;;;;;;22.90;13.02;;;17.40;92.60;;;;;;4997211;28;20069;-65
2021/10/06 11:31:59;;;;;;;23.27;13.98;;;17.50;92.40;;;;;;4995797;28;20484;-66
2021/10/06 11:34:24;;;;;;;30.00;20.00;;;17.50;91.80;;;;;;4997199;28;20037;-67
2021/10/06 11:36:55;;;;;;;28.88;16.35;;;17.70;92.20;;;;;;4996056;28;20022;-67
2021/10/06 11:39:25;;;;;;;25.52;15.23;;;17.90;92.90;;;;;;4997070;28;20169;-68
2021/10/06 11:41:52;;;;;;;21.17;13.38;;;18.00;91.90;;;;;;4995703;28;20034;-67
2021/10/06 11:44:29;;;;;;;22.95;11.90;;;18.10;91.60;;;;;;4996987;28;20034;-68
2021/10/06 11:46:57;;;;;;;16.23;11.07;;;18.40;91.80;;;;;;4996996;28;20065;-69
2021/10/06 11:49:28;;;;;;;27.30;11.50;;;18.60;91.20;;;;;;4996715;28;20053;-65
2021/10/06 11:51:54;;;;;;;26.33;12.02;;;18.80;90.90;;;;;;4996807;28;20460;-67
2021/10/06 11:54:25;;;;;;;25.08;11.45;;;18.80;90.30;;;;;;4996508;28;20084;-68
2021/10/06 11:56:53;;;;;;;28.83;16.92;;;18.70;90.40;;;;;;4996827;28;20076;-66
2021/10/06 11:59:21;;;;;;;26.67;16.17;;;18.50;90.20;;;;;;4996845;28;20077;-68
2021/10/06 12:01:51;;;;;;;32.90;19.08;;;18.50;90.40;;;;;;4996675;28;20037;-69
2021/10/06 12:04:19;;;;;;;19.38;13.48;;;18.30;89.50;;;;;;4996718;28;20035;-67
2021/10/06 12:06:48;;;;;;;23.88;12.55;;;18.20;90.30;;;;;;4994932;28;20072;-68
2021/10/06 12:09:15;;;;;;;23.75;14.57;;;18.10;90.30;;;;;;4996539;28;20034;-67
2021/10/06 12:11:44;;;;;;;20.90;12.45;;;18.10;89.70;;;;;;4996023;28;20046;-67
2021/10/06 12:14:21;;;;;;;19.38;13.32;;;18.10;90.10;;;;;;4996010;28;20022;-67
2021/10/06 12:16:57;;;;;;;25.88;17.35;;;18.10;88.90;;;;;;4996472;28;20022;-67
2021/10/06 12:19:23;;;;;;;28.98;17.27;;;18.20;89.50;;;;;;4996261;28;20026;-68
2021/10/06 12:21:50;;;;;;;27.65;14.25;;;18.30;90.00;;;;;;4994909;28;20045;-67
2021/10/06 12:24:19;;;;;;;21.88;12.02;;;18.30;88.60;;;;;;4996264;28;20109;-66
2021/10/06 12:26:47;;;;;;;20.88;12.98;;;18.30;88.00;;;;;;4994954;28;20053;-67
2021/10/06 12:29:14;;;;;;;19.70;11.45;;;18.40;87.60;;;;;;4996117;28;20026;-65
2021/10/06 12:31:42;;;;;;;24.77;11.40;;;18.40;87.40;;;;;;4996100;28;20552;-68
2021/10/06 12:34:22;;;;;;;22.17;10.95;;;18.50;86.80;;;;;;4996043;28;20062;-67